Time;durP1;ratioP1;P1;durP2;ratioP2;P2;SDS_P1;SDS_P2;PMS_P1;PMS_P2;Temp;Humidity;BMP_temperature;BMP_pressure;BME280_temperature;BME280_humidity;BME280_pressure;Samples;Min_cycle;Max_cycle;Signal;HPM_P1;HPM_P2
2023/03/19 00:01:35;;;;;;;10.87;6.70;;;;;;;7.78;47.91;95148.63;4990828;28;20201;-56
2023/03/19 00:04:03;;;;;;;10.23;6.07;;;;;;;7.75;47.87;95139.47;4991261;28;20280;-59
2023/03/19 00:06:30;;;;;;;13.43;7.40;;;;;;;7.75;47.88;95146.28;4990879;28;20197;-60
2023/03/19 00:08:57;;;;;;;9.70;7.10;;;;;;;7.73;47.90;95141.31;4990832;28;20189;-56
2023/03/19 00:11:23;;;;;;;12.77;7.40;;;;;;;7.72;47.92;95141.41;4990127;28;20193;-57
2023/03/19 00:13:50;;;;;;;10.33;7.00;;;;;;;7.71;48.03;95143.13;4990916;28;20654;-55
2023/03/19 00:16:17;;;;;;;9.03;6.90;;;;;;;7.69;48.01;95145.00;4990692;28;20300;-55
2023/03/19 00:18:44;;;;;;;10.47;7.20;;;;;;;7.68;48.09;95148.44;4990740;28;20189;-56
2023/03/19 00:21:12;;;;;;;11.73;6.73;;;;;;;7.62;48.20;95138.72;4988543;28;20507;-57
2023/03/19 00:23:39;;;;;;;11.00;6.77;;;;;;;7.64;48.34;95139.44;4990398;28;20195;-53
2023/03/19 00:26:06;;;;;;;12.23;7.53;;;;;;;7.61;48.36;95132.00;4990913;28;20264;-61
2023/03/19 00:28:34;;;;;;;13.30;7.17;;;;;;;7.61;48.34;95131.19;4990596;28;20240;-56
2023/03/19 00:31:08;;;;;;;11.33;7.63;;;;;;;7.60;48.37;95129.53;4990595;28;20193;-55
2023/03/19 00:33:34;;;;;;;10.60;6.97;;;;;;;7.59;48.36;95131.28;4989849;28;20220;-56
2023/03/19 00:36:01;;;;;;;12.80;8.13;;;;;;;7.58;48.47;95126.31;4990421;28;20255;-58
2023/03/19 00:38:29;;;;;;;12.73;7.63;;;;;;;7.56;48.31;95116.25;4990516;28;20196;-55
2023/03/19 00:40:56;;;;;;;10.23;7.13;;;;;;;7.55;48.54;95119.69;4990445;28;20665;-56
2023/03/19 00:43:23;;;;;;;11.87;6.73;;;;;;;7.53;48.60;95117.25;4990032;28;20197;-56
2023/03/19 00:45:50;;;;;;;10.90;7.07;;;;;;;7.52;48.61;95115.66;4990271;28;20192;-58
2023/03/19 00:48:17;;;;;;;14.63;7.67;;;;;;;7.48;48.56;95104.06;4990174;28;20192;-52
2023/03/19 00:50:44;;;;;;;14.60;8.10;;;;;;;7.51;48.52;95108.94;4990344;28;20193;-52
2023/03/19 00:53:11;;;;;;;11.90;8.07;;;;;;;7.49;48.69;95110.78;4989896;28;20221;-52
2023/03/19 00:55:39;;;;;;;9.97;6.73;;;;;;;7.45;48.64;95101.72;4990066;28;20196;-54
2023/03/19 00:58:06;;;;;;;12.23;8.07;;;;;;;7.48;48.80;95111.69;4990400;28;20646;-55
2023/03/19 01:00:35;;;;;;;11.63;7.70;;;;;;;7.48;48.67;95103.25;4989735;28;20192;-57
2023/03/19 01:03:02;;;;;;;12.17;7.03;;;;;;;7.47;48.57;95099.91;4976262;28;20208;-56
2023/03/19 01:05:30;;;;;;;10.83;6.80;;;;;;;7.46;48.73;95097.44;4980662;28;20197;-55
2023/03/19 01:07:57;;;;;;;9.73;6.23;;;;;;;7.45;48.70;95098.38;4989696;28;20283;-61
2023/03/19 01:10:24;;;;;;;12.03;7.17;;;;;;;7.41;48.79;95089.34;4989584;28;20196;-60
2023/03/19 01:12:53;;;;;;;10.40;6.47;;;;;;;7.44;48.61;95094.22;4989788;28;20558;-59
2023/03/19 01:15:19;;;;;;;12.70;7.47;;;;;;;7.40;48.63;95088.53;4989333;28;20182;-59
2023/03/19 01:17:47;;;;;;;10.47;6.77;;;;;;;7.42;48.68;95088.41;4989794;28;20197;-58
2023/03/19 01:20:17;;;;;;;11.03;7.00;;;;;;;7.41;48.68;95092.69;4989518;28;20229;-59
2023/03/19 01:22:45;;;;;;;10.23;6.77;;;;;;;7.34;48.90;95077.94;4989556;28;20801;-56
2023/03/19 01:25:13;;;;;;;12.20;7.27;;;;;;;7.40;48.88;95087.72;4989443;28;20196;-59
2023/03/19 01:27:41;;;;;;;9.07;5.93;;;;;;;7.37;48.79;95083.66;4988447;28;20225;-58
2023/03/19 01:30:10;;;;;;;9.50;6.37;;;;;;;7.34;48.74;95085.59;4989496;28;20200;-55
2023/03/19 01:32:37;;;;;;;8.50;6.40;;;;;;;7.34;48.84;95080.50;4989570;28;20231;-58
2023/03/19 01:35:04;;;;;;;10.50;6.47;;;;;;;7.35;48.91;95089.78;4989419;28;20603;-57
2023/03/19 01:37:31;;;;;;;10.20;7.30;;;;;;;7.34;48.98;95083.88;4989112;28;20254;-59
2023/03/19 01:39:58;;;;;;;9.37;6.47;;;;;;;7.32;49.02;95087.44;4989661;28;20188;-60
2023/03/19 01:42:25;;;;;;;7.73;6.33;;;;;;;7.31;49.01;95089.19;4989604;28;20197;-54
2023/03/19 01:44:52;;;;;;;8.90;6.80;;;;;;;7.31;49.08;95096.00;4989598;28;20318;-54
2023/03/19 01:47:28;;;;;;;10.40;6.97;;;;;;;7.31;49.24;95085.81;4988847;28;20184;-56
2023/03/19 01:49:57;;;;;;;11.00;6.90;;;;;;;7.23;49.34;95084.63;4989548;28;20239;-53
2023/03/19 01:52:26;;;;;;;14.17;6.83;;;;;;;7.26;49.24;95092.03;4989099;28;20224;-55
2023/03/19 01:54:56;;;;;;;11.47;7.43;;;;;;;7.26;49.45;95091.25;4989430;28;20303;-54
2023/03/19 01:57:24;;;;;;;12.50;7.57;;;;;;;7.24;49.40;95101.50;4988725;28;20323;-55
2023/03/19 01:59:53;;;;;;;13.27;7.43;;;;;;;7.23;49.43;95096.53;4989712;28;20193;-57
2023/03/19 02:02:28;;;;;;;9.93;7.63;;;;;;;7.19;49.64;95084.94;4988973;28;20193;-51
2023/03/19 02:04:58;;;;;;;9.00;7.37;;;;;;;7.18;49.61;95093.50;4989708;28;20243;-52
2023/03/19 02:07:26;;;;;;;9.97;7.67;;;;;;;7.19;49.72;95098.47;4988474;28;20197;-54
2023/03/19 02:09:53;;;;;;;10.17;7.10;;;;;;;7.20;49.80;95099.28;4989228;28;20550;-56
2023/03/19 02:12:20;;;;;;;10.67;6.73;;;;;;;7.16;49.88;95095.31;4988839;28;20549;-57
2023/03/19 02:14:47;;;;;;;9.47;7.20;;;;;;;7.16;49.77;95091.03;4989280;28;20264;-52
2023/03/19 02:17:14;;;;;;;8.90;6.87;;;;;;;7.16;49.72;95085.16;4989031;28;20199;-57
2023/03/19 02:19:52;;;;;;;11.70;6.93;;;;;;;7.11;49.92;95080.38;4991460;28;20196;-58
2023/03/19 02:22:22;;;;;;;11.77;7.50;;;;;;;7.13;49.87;95086.19;4992910;28;20196;-57
2023/03/19 02:24:53;;;;;;;11.10;8.20;;;;;;;7.11;49.93;95092.28;4993129;28;20203;-49
2023/03/19 02:27:22;;;;;;;8.97;6.17;;;;;;;7.11;50.00;95085.47;4992404;28;20181;-57
2023/03/19 02:29:49;;;;;;;11.43;7.47;;;;;;;7.09;50.08;95086.50;4992645;28;20653;-55
2023/03/19 02:32:16;;;;;;;10.20;6.63;;;;;;;7.09;50.16;95087.31;4992649;28;20610;-55
2023/03/19 02:34:43;;;;;;;10.90;7.70;;;;;;;7.08;49.99;95089.97;4993070;28;20192;-57
2023/03/19 02:37:18;;;;;;;8.13;6.47;;;;;;;7.07;50.01;95101.06;4991904;28;20608;-53
2023/03/19 02:39:52;;;;;;;12.70;6.80;;;;;;;7.05;50.36;95096.09;4992869;28;20192;-51
2023/03/19 02:42:23;;;;;;;10.87;7.17;;;;;;;7.03;50.29;95098.72;4992158;28;20200;-55
2023/03/19 02:44:49;;;;;;;10.73;6.77;;;;;;;7.01;50.30;95098.03;4992728;28;20201;-50
2023/03/19 02:47:17;;;;;;;10.73;7.13;;;;;;;7.01;50.42;95100.56;4992425;28;20199;-49
2023/03/19 02:49:43;;;;;;;11.30;7.13;;;;;;;6.99;50.32;95102.41;4992604;28;20189;-54
2023/03/19 02:52:11;;;;;;;9.70;6.60;;;;;;;7.00;50.29;95096.41;4991874;28;20197;-51
2023/03/19 02:54:37;;;;;;;15.77;6.80;;;;;;;6.98;50.49;95099.97;4992252;28;20280;-58
2023/03/19 02:57:05;;;;;;;9.67;6.23;;;;;;;6.93;50.69;95091.84;4992017;28;20310;-48
2023/03/19 02:59:33;;;;;;;10.07;6.23;;;;;;;6.97;50.38;95105.97;4991718;28;20205;-52
2023/03/19 03:02:00;;;;;;;8.30;6.47;;;;;;;6.95;50.42;95106.09;4992389;28;20688;-51
2023/03/19 03:04:28;;;;;;;8.57;6.00;;;;;;;6.93;50.78;95102.81;4992397;28;20199;-52
2023/03/19 03:06:54;;;;;;;8.57;5.20;;;;;;;6.93;50.56;95107.09;4992087;28;20648;-50
2023/03/19 03:09:22;;;;;;;10.27;6.20;;;;;;;6.92;50.81;95110.56;4991602;28;20724;-46
2023/03/19 03:11:49;;;;;;;12.47;6.37;;;;;;;6.91;50.58;95117.38;4991719;28;20192;-54
2023/03/19 03:14:15;;;;;;;7.77;5.77;;;;;;;6.90;50.69;95115.72;4991635;28;20219;-51
2023/03/19 03:16:44;;;;;;;11.77;6.20;;;;;;;6.90;50.73;95120.00;4992115;28;20212;-49
2023/03/19 03:19:11;;;;;;;8.67;5.87;;;;;;;6.88;50.75;95115.03;4991390;28;20296;-54
2023/03/19 03:21:38;;;;;;;12.47;6.37;;;;;;;6.87;51.08;95115.97;4991260;28;20300;-50
2023/03/19 03:24:06;;;;;;;9.53;6.37;;;;;;;6.86;50.82;95116.06;4991555;28;20185;-50
2023/03/19 03:26:33;;;;;;;7.60;6.23;;;;;;;6.86;50.86;95121.13;4991737;28;20193;-52
2023/03/19 03:29:00;;;;;;;11.03;7.10;;;;;;;6.84;50.76;95118.72;4991677;28;20625;-51
2023/03/19 03:31:27;;;;;;;11.30;7.07;;;;;;;6.82;50.85;95115.44;4991353;28;20578;-52
2023/03/19 03:33:55;;;;;;;11.20;6.60;;;;;;;6.82;51.20;95117.16;4991068;28;20225;-52
2023/03/19 03:36:22;;;;;;;12.03;6.53;;;;;;;6.81;50.85;95121.44;4991708;28;20193;-58
2023/03/19 03:38:49;;;;;;;11.53;7.03;;;;;;;6.79;50.91;95116.47;4991608;28;20366;-50
2023/03/19 03:41:15;;;;;;;12.93;8.03;;;;;;;6.80;50.87;95122.38;4991429;28;20291;-52
2023/03/19 03:43:42;;;;;;;13.33;7.77;;;;;;;6.79;50.91;95125.84;4991339;28;20610;-48
2023/03/19 03:46:09;;;;;;;12.57;7.43;;;;;;;6.77;51.13;95125.13;4990946;28;20189;-55
2023/03/19 03:48:36;;;;;;;13.03;8.83;;;;;;;6.75;51.04;95127.78;4991439;28;20204;-51
2023/03/19 03:51:04;;;;;;;14.20;8.90;;;;;;;6.75;51.04;95124.41;4991244;28;20554;-52
2023/03/19 03:53:31;;;;;;;14.70;8.47;;;;;;;6.76;51.20;95131.94;4991345;28;20235;-56
2023/03/19 03:55:58;;;;;;;15.50;8.27;;;;;;;6.72;51.02;95129.69;4990737;28;20236;-54
2023/03/19 03:58:25;;;;;;;11.87;8.10;;;;;;;6.76;51.07;95136.19;4991366;28;20247;-56
2023/03/19 04:00:53;;;;;;;18.53;9.17;;;;;;;6.75;51.27;95137.13;4991198;28;20267;-52
2023/03/19 04:03:21;;;;;;;16.10;9.43;;;;;;;6.72;51.34;95129.69;4991208;28;20649;-55
2023/03/19 04:05:48;;;;;;;12.63;8.47;;;;;;;6.73;51.31;95126.22;4990659;28;20199;-55
2023/03/19 04:08:16;;;;;;;14.63;8.80;;;;;;;6.69;51.27;95123.13;4991114;28;20632;-52
2023/03/19 04:10:43;;;;;;;14.57;9.93;;;;;;;6.70;51.41;95121.38;4990561;28;20676;-58
2023/03/19 04:13:10;;;;;;;15.27;9.63;;;;;;;6.69;51.46;95125.66;4990976;28;20229;-57
2023/03/19 04:15:37;;;;;;;15.73;9.83;;;;;;;6.69;51.44;95125.66;4991286;28;20247;-52
2023/03/19 04:18:04;;;;;;;16.30;10.77;;;;;;;6.68;51.60;95129.09;4990553;28;20189;-49
2023/03/19 04:20:31;;;;;;;20.27;10.47;;;;;;;6.66;51.55;95120.78;4991028;28;20208;-54
2023/03/19 04:22:57;;;;;;;19.10;10.30;;;;;;;6.66;51.68;95120.78;4990638;28;20193;-54
2023/03/19 04:25:26;;;;;;;16.30;9.67;;;;;;;6.65;51.59;95119.16;4990617;28;20184;-58
2023/03/19 04:27:52;;;;;;;15.03;9.37;;;;;;;6.66;51.61;95125.03;4990370;28;20271;-57
2023/03/19 04:30:19;;;;;;;16.67;9.60;;;;;;;6.65;51.58;95123.38;4990441;28;20201;-50
2023/03/19 04:32:46;;;;;;;20.30;9.87;;;;;;;6.61;51.86;95122.81;4990333;28;20193;-53
2023/03/19 04:35:13;;;;;;;16.93;10.40;;;;;;;6.66;51.75;95127.59;4990779;28;20193;-54
2023/03/19 04:37:42;;;;;;;15.00;10.03;;;;;;;6.64;51.56;95126.84;4990057;28;20189;-52
2023/03/19 04:40:11;;;;;;;17.93;10.10;;;;;;;6.67;51.69;95130.00;4990802;28;20715;-48
2023/03/19 04:42:40;;;;;;;16.13;11.10;;;;;;;6.66;51.74;95133.47;4989896;28;20189;-51
2023/03/19 04:45:07;;;;;;;15.17;9.33;;;;;;;6.69;51.85;95134.97;4990448;28;20588;-49
2023/03/19 04:47:34;;;;;;;17.50;10.13;;;;;;;6.71;51.82;95140.78;4990411;28;20194;-53
2023/03/19 04:50:01;;;;;;;24.10;11.20;;;;;;;6.73;51.82;95137.22;4989942;28;20684;-49
2023/03/19 04:52:28;;;;;;;15.17;9.80;;;;;;;6.78;51.80;95139.47;4989945;28;20295;-51
2023/03/19 04:54:55;;;;;;;16.00;9.57;;;;;;;6.83;51.74;95141.69;4990052;28;20217;-48
2023/03/19 04:57:22;;;;;;;18.77;10.17;;;;;;;6.80;51.77;95127.44;4989979;28;20229;-58
2023/03/19 04:59:50;;;;;;;19.53;9.57;;;;;;;6.94;51.67;95140.03;4989610;28;20196;-49
2023/03/19 05:02:17;;;;;;;13.57;9.30;;;;;;;7.01;51.72;95131.06;4989608;28;20304;-54
2023/03/19 05:04:44;;;;;;;18.23;10.37;;;;;;;7.10;51.53;95137.25;4989398;28;20633;-51
2023/03/19 05:07:11;;;;;;;15.23;9.53;;;;;;;7.23;51.33;95135.50;4989710;28;20657;-51
2023/03/19 05:09:38;;;;;;;14.67;9.30;;;;;;;7.40;51.13;95146.22;4989471;28;20197;-50
2023/03/19 05:12:05;;;;;;;14.60;9.87;;;;;;;7.61;50.86;95143.91;4989940;28;20271;-53
2023/03/19 05:14:32;;;;;;;15.00;8.73;;;;;;;7.90;50.33;95142.66;4989618;28;20676;-52
2023/03/19 05:17:00;;;;;;;16.17;9.03;;;;;;;8.31;50.05;95141.38;4989745;28;20705;-49
2023/03/19 05:19:27;;;;;;;16.13;8.57;;;;;;;8.84;49.82;95140.88;4989151;28;20281;-49
2023/03/19 05:21:56;;;;;;;17.20;10.03;;;;;;;9.46;49.63;95141.16;4989077;28;20188;-47
2023/03/19 05:24:22;;;;;;;12.23;8.37;;;;;;;10.18;49.40;95144.81;4989654;28;20185;-51
2023/03/19 05:26:49;;;;;;;14.90;9.40;;;;;;;10.95;49.02;95140.16;4989554;28;20196;-50
2023/03/19 05:29:16;;;;;;;16.47;9.07;;;;;;;11.78;48.35;95140.75;4989635;28;20193;-53
2023/03/19 05:31:43;;;;;;;12.73;7.77;;;;;;;12.64;47.77;95146.78;4989120;28;20197;-49
2023/03/19 05:34:11;;;;;;;14.67;7.90;;;;;;;13.52;46.84;95142.13;4989503;28;20235;-52
2023/03/19 05:36:38;;;;;;;13.27;8.10;;;;;;;14.42;46.10;95146.31;4989510;28;20208;-55
2023/03/19 05:39:06;;;;;;;13.53;8.17;;;;;;;15.32;44.91;95142.47;4989667;28;20263;-51
2023/03/19 05:41:33;;;;;;;11.33;7.70;;;;;;;16.23;44.14;95135.72;4989020;28;20214;-52
2023/03/19 05:44:00;;;;;;;13.17;7.90;;;;;;;17.13;43.14;95140.78;4989200;28;20701;-53
2023/03/19 05:46:27;;;;;;;11.63;7.83;;;;;;;17.99;42.34;95140.69;4989172;28;20208;-54
2023/03/19 05:48:54;;;;;;;10.40;7.63;;;;;;;18.83;41.37;95145.09;4989502;28;20204;-48
2023/03/19 05:51:22;;;;;;;11.77;7.63;;;;;;;19.66;40.68;95149.16;4989405;28;20195;-51
2023/03/19 05:53:49;;;;;;;10.83;7.40;;;;;;;20.43;39.73;95151.94;4991293;28;20219;-51
2023/03/19 05:56:15;;;;;;;11.83;7.83;;;;;;;21.18;39.09;95152.28;4993237;28;20279;-51
2023/03/19 05:58:42;;;;;;;12.30;8.03;;;;;;;21.91;38.23;95163.81;4993817;28;20189;-50
2023/03/19 06:01:09;;;;;;;11.00;7.47;;;;;;;22.60;37.56;95154.13;4993164;28;20208;-49
2023/03/19 06:03:36;;;;;;;11.52;6.75;;;;;;;23.30;36.86;95155.25;4993095;28;20197;-48
2023/03/19 06:06:03;;;;;;;11.63;7.80;;;;;;;23.97;36.24;95155.84;4993038;28;20185;-54
2023/03/19 06:08:31;;;;;;;12.75;7.38;;;;;;;24.63;35.99;95152.78;4993025;28;20193;-54
2023/03/19 06:10:57;;;;;;;9.38;6.57;;;;;;;25.26;35.04;95151.84;4993354;28;20677;-55
2023/03/19 06:13:24;;;;;;;11.75;6.88;;;;;;;25.88;34.90;95157.00;4992506;28;20230;-57
2023/03/19 06:15:51;;;;;;;7.00;5.88;;;;;;;26.44;34.06;95158.47;4993160;28;20197;-57
2023/03/19 06:18:18;;;;;;;10.40;6.82;;;;;;;26.98;33.55;95161.81;4992992;28;20815;-56
2023/03/19 06:20:47;;;;;;;6.65;5.85;;;;;;;27.52;33.22;95154.59;4993245;28;20188;-52
2023/03/19 06:23:14;;;;;;;8.27;6.20;;;;;;;28.06;32.94;95156.94;4993059;28;20200;-57
2023/03/19 06:25:42;;;;;;;7.82;5.78;;;;;;;28.59;32.08;95156.59;4992695;28;20271;-52
2023/03/19 06:28:09;;;;;;;9.45;6.38;;;;;;;29.11;31.77;95166.09;4992661;28;20188;-56
2023/03/19 06:30:35;;;;;;;8.20;5.35;;;;;;;29.61;31.39;95171.25;4992666;28;20197;-61
2023/03/19 06:33:02;;;;;;;8.90;6.00;;;;;;;30.09;31.39;95171.53;4992595;28;20570;-54
2023/03/19 06:35:29;;;;;;;8.27;5.63;;;;;;;30.55;30.64;95170.16;4992571;28;20213;-49
2023/03/19 06:37:56;;;;;;;9.30;5.75;;;;;;;30.97;30.74;95170.25;4992498;28;20232;-48
2023/03/19 06:40:23;;;;;;;6.93;5.57;;;;;;;31.39;29.97;95173.94;4992403;28;20188;-50
2023/03/19 06:42:51;;;;;;;6.53;5.20;;;;;;;31.80;29.81;95179.44;4992598;28;20193;-50
2023/03/19 06:45:19;;;;;;;7.00;5.05;;;;;;;32.18;29.82;95178.25;4992172;28;20240;-49
2023/03/19 06:47:46;;;;;;;5.50;4.65;;;;;;;32.57;29.61;95181.25;4992795;28;20390;-55
2023/03/19 06:50:15;;;;;;;7.78;4.93;;;;;;;32.92;29.31;95196.38;4992481;28;20217;-56
2023/03/19 06:52:42;;;;;;;6.40;5.03;;;;;;;33.23;28.96;95193.69;4992865;28;20629;-58
2023/03/19 06:55:10;;;;;;;5.97;4.60;;;;;;;33.53;28.73;95200.81;4992468;28;20261;-48
2023/03/19 06:57:37;;;;;;;5.30;4.80;;;;;;;33.83;28.65;95201.78;4992241;28;20228;-49
2023/03/19 07:00:09;;;;;;;6.30;4.80;;;;;;;34.09;28.41;95191.84;4986352;28;20196;-50
2023/03/19 07:02:36;;;;;;;4.90;3.92;;;;;;;34.38;28.08;95192.75;4989793;28;20201;-49
2023/03/19 07:05:03;;;;;;;5.80;5.15;;;;;;;34.64;28.04;95200.59;4989098;28;20621;-51
2023/03/19 07:07:30;;;;;;;5.78;4.65;;;;;;;34.89;27.81;95207.56;4989295;28;20193;-54
2023/03/19 07:09:57;;;;;;;5.72;4.85;;;;;;;35.10;27.63;95202.88;4989874;28;20185;-52
2023/03/19 07:12:26;;;;;;;6.53;4.70;;;;;;;35.29;27.35;95193.13;4989237;28;20557;-58
2023/03/19 07:14:53;;;;;;;5.47;4.32;;;;;;;35.49;27.32;95197.47;4989881;28;20212;-49
2023/03/19 07:17:21;;;;;;;5.45;4.50;;;;;;;35.65;27.24;95198.88;4989446;28;20181;-51
2023/03/19 07:19:48;;;;;;;4.45;4.03;;;;;;;35.73;27.17;95186.81;4989367;28;20189;-50
2023/03/19 07:22:15;;;;;;;5.28;4.50;;;;;;;35.97;26.85;95207.31;4989244;28;20200;-50
2023/03/19 07:24:42;;;;;;;6.57;4.32;;;;;;;36.07;27.04;95192.00;4989118;28;20197;-60
2023/03/19 07:27:09;;;;;;;7.15;4.70;;;;;;;36.19;26.75;95194.25;4989392;28;20204;-50
2023/03/19 07:29:36;;;;;;;5.28;4.35;;;;;;;36.28;26.80;95187.19;4989632;28;20193;-59
2023/03/19 07:32:03;;;;;;;4.28;3.80;;;;;;;36.38;26.75;95189.72;4988880;28;20196;-57
2023/03/19 07:34:31;;;;;;;4.78;4.32;;;;;;;36.48;26.66;95186.13;4989137;28;20625;-56
2023/03/19 07:36:58;;;;;;;4.45;4.03;;;;;;;36.56;26.64;95192.69;4989003;28;20264;-59
2023/03/19 07:39:25;;;;;;;8.75;3.78;;;;;;;36.60;26.54;95191.03;4989506;28;20200;-54
2023/03/19 07:41:52;;;;;;;4.43;4.05;;;;;;;36.63;26.41;95177.91;4989092;28;20224;-58
2023/03/19 07:44:19;;;;;;;4.72;4.20;;;;;;;36.63;26.59;95193.91;4988901;28;20189;-56
2023/03/19 07:46:46;;;;;;;5.95;4.50;;;;;;;36.62;26.48;95188.88;4988483;28;20580;-59
2023/03/19 07:49:13;;;;;;;4.65;4.07;;;;;;;36.63;26.54;95193.13;4988839;28;20335;-49
2023/03/19 07:51:41;;;;;;;4.88;4.32;;;;;;;36.64;26.36;95192.81;4989242;28;20189;-52
2023/03/19 07:54:07;;;;;;;5.32;4.15;;;;;;;36.64;26.60;95197.34;4988298;28;20193;-58
2023/03/19 07:56:35;;;;;;;5.28;4.35;;;;;;;36.61;26.30;95203.25;4988877;28;20228;-49
2023/03/19 07:59:02;;;;;;;5.93;4.63;;;;;;;36.56;26.35;95190.81;4988749;28;20204;-53
2023/03/19 08:01:29;;;;;;;7.30;4.95;;;;;;;36.51;26.38;95190.09;4988405;28;20383;-51
2023/03/19 08:03:56;;;;;;;5.25;4.55;;;;;;;36.44;26.35;95185.13;5004574;28;20192;-58
2023/03/19 08:06:23;;;;;;;5.57;4.55;;;;;;;36.36;26.27;95185.78;5005849;28;20204;-53
2023/03/19 08:08:51;;;;;;;6.63;5.55;;;;;;;36.28;26.50;95197.06;4988430;28;20228;-58
2023/03/19 08:11:18;;;;;;;6.43;4.80;;;;;;;36.17;26.48;95188.41;4988580;28;20200;-55
2023/03/19 08:13:45;;;;;;;5.78;5.05;;;;;;;36.07;26.39;95191.22;4988762;28;20584;-50
2023/03/19 08:16:12;;;;;;;7.13;5.15;;;;;;;35.94;26.39;95190.03;4987300;28;20213;-55
2023/03/19 08:18:39;;;;;;;9.80;4.82;;;;;;;35.79;26.51;95195.53;4987910;28;20635;-55
2023/03/19 08:21:06;;;;;;;5.57;4.75;;;;;;;35.64;26.59;95191.97;4988156;28;20622;-54
2023/03/19 08:23:34;;;;;;;5.85;4.72;;;;;;;35.49;26.65;95194.00;4987900;28;20252;-54
2023/03/19 08:26:02;;;;;;;5.50;4.93;;;;;;;35.34;26.86;95192.28;4988626;28;20302;-52
2023/03/19 08:28:28;;;;;;;7.03;5.25;;;;;;;35.17;26.89;95196.16;4988378;28;20208;-49
2023/03/19 08:30:55;;;;;;;5.45;4.60;;;;;;;34.97;27.18;95192.84;4978416;28;20302;-47
2023/03/19 08:33:22;;;;;;;8.45;5.05;;;;;;;34.77;27.31;95197.28;5001884;28;20204;-56
2023/03/19 08:35:49;;;;;;;5.90;5.05;;;;;;;34.54;27.55;95192.66;5003982;28;20211;-49
2023/03/19 08:38:16;;;;;;;6.00;5.03;;;;;;;34.29;27.75;95189.09;4987692;28;20193;-51
2023/03/19 08:40:43;;;;;;;6.43;4.97;;;;;;;34.05;27.69;95186.28;4986922;28;20196;-53
2023/03/19 08:43:11;;;;;;;6.50;4.78;;;;;;;33.75;27.66;95173.94;4985312;28;20184;-50
2023/03/19 08:45:38;;;;;;;5.30;4.80;;;;;;;33.48;27.83;95174.31;4987365;28;20201;-60
2023/03/19 08:48:05;;;;;;;8.52;5.43;;;;;;;33.21;27.89;95182.56;5000616;28;20197;-55
2023/03/19 08:50:31;;;;;;;3.88;3.58;;;;;;;32.79;30.94;95175.69;4991383;28;20300;-51
2023/03/19 08:52:58;;;;;;;4.13;3.65;;;;;;;32.16;31.49;95159.97;4987787;28;20240;-51
2023/03/19 08:55:25;;;;;;;6.20;3.78;;;;;;;31.60;32.16;95172.19;4987170;28;20217;-48
2023/03/19 08:57:52;;;;;;;4.47;4.05;;;;;;;31.08;32.12;95165.00;4986149;28;20701;-53
2023/03/19 09:00:21;;;;;;;4.70;4.20;;;;;;;30.60;32.84;95161.47;4993559;28;20181;-49
2023/03/19 09:02:48;;;;;;;7.25;3.88;;;;;;;30.20;32.13;95149.50;5007099;28;20200;-49
2023/03/19 09:05:15;;;;;;;9.05;5.18;;;;;;;29.91;31.86;95151.56;5007039;28;20648;-50
2023/03/19 09:07:41;;;;;;;6.60;4.60;;;;;;;29.65;31.19;95153.91;5007241;28;20204;-51
2023/03/19 09:10:09;;;;;;;20.25;5.85;;;;;;;29.37;30.33;95151.44;5007273;28;20200;-52
2023/03/19 09:12:36;;;;;;;9.20;5.85;;;;;;;29.08;29.88;95137.59;5004810;28;20774;-57
2023/03/19 09:15:03;;;;;;;9.88;5.90;;;;;;;28.82;30.30;95142.47;4987204;28;20933;-53
2023/03/19 09:17:31;;;;;;;11.77;5.50;;;;;;;28.55;29.95;95133.63;4987620;28;20188;-59
2023/03/19 09:19:58;;;;;;;14.45;5.15;;;;;;;28.36;30.54;95139.09;4987385;28;20211;-57
2023/03/19 09:22:25;;;;;;;11.15;5.85;;;;;;;28.14;30.84;95136.34;4987016;28;20829;-50
2023/03/19 09:24:51;;;;;;;11.23;5.53;;;;;;;27.93;31.06;95132.53;4987048;28;20204;-57
2023/03/19 09:27:19;;;;;;;13.93;5.75;;;;;;;27.70;31.71;95133.41;4986889;28;21063;-50
2023/03/19 09:29:46;;;;;;;13.25;5.72;;;;;;;27.50;31.75;95136.44;4987323;28;20271;-52
2023/03/19 09:32:13;;;;;;;9.77;6.05;;;;;;;27.29;32.34;95125.72;4986817;28;20209;-49
2023/03/19 09:34:41;;;;;;;10.20;6.55;;;;;;;27.09;32.50;95129.53;4987475;28;20220;-51
2023/03/19 09:37:10;;;;;;;12.77;5.80;;;;;;;26.94;32.88;95127.38;4986599;28;20200;-55
2023/03/19 09:39:37;;;;;;;12.50;6.00;;;;;;;26.79;33.52;95126.22;4987441;28;20223;-50
2023/03/19 09:42:16;;;;;;;12.45;5.25;;;;;;;26.63;34.15;95122.44;4987054;28;20203;-51
2023/03/19 09:44:45;;;;;;;9.48;6.22;;;;;;;26.44;34.34;95121.72;4987167;28;20208;-51
2023/03/19 09:47:26;;;;;;;9.73;5.88;;;;;;;26.21;35.08;95109.34;4986919;28;20193;-49
2023/03/19 09:49:57;;;;;;;8.52;5.03;;;;;;;26.19;35.80;95119.25;4987199;28;20195;-48
2023/03/19 09:52:42;;;;;;;11.75;4.40;;;;;;;26.10;36.25;95112.72;4987152;28;20193;-51
2023/03/19 09:55:20;;;;;;;14.30;5.00;;;;;;;25.97;36.34;95109.28;4987201;28;20591;-55
2023/03/19 09:57:48;;;;;;;9.55;5.15;;;;;;;25.91;36.67;95114.63;4986057;28;20326;-49
2023/03/19 10:00:26;;;;;;;8.25;5.72;;;;;;;25.80;36.56;95110.13;4976722;28;20300;-48
2023/03/19 10:02:58;;;;;;;9.80;5.75;;;;;;;25.65;36.30;95098.19;4986668;28;20212;-49
2023/03/19 10:05:37;;;;;;;7.93;5.28;;;;;;;25.51;36.02;95094.13;4987061;28;20181;-49
2023/03/19 10:08:39;;;;;;;10.60;6.07;;;;;;;25.37;36.15;95093.50;4987201;28;20204;-51
2023/03/19 10:11:29;;;;;;;12.45;6.53;;;;;;;25.21;35.85;95091.47;4906887;29;20231;-50
2023/03/19 10:14:07;;;;;;;12.88;6.43;;;;;;;25.07;36.19;95092.59;4915216;29;20203;-51
2023/03/19 10:16:36;;;;;;;9.45;5.45;;;;;;;24.92;36.52;95087.75;4923348;29;20303;-60
2023/03/19 10:19:04;;;;;;;17.17;6.57;;;;;;;24.83;36.48;95087.22;4926598;29;20210;-47
2023/03/19 10:21:35;;;;;;;28.45;6.82;;;;;;;24.63;36.96;95061.25;4926541;29;20571;-50
2023/03/19 10:24:05;;;;;;;19.13;6.50;;;;;;;24.71;37.35;95076.66;4946791;29;20229;-48
2023/03/19 10:26:34;;;;;;;14.35;6.18;;;;;;;24.65;37.17;95071.47;4933921;29;20192;-49
2023/03/19 10:29:08;;;;;;;14.07;6.60;;;;;;;24.56;37.56;95068.34;4928818;29;20222;-51
2023/03/19 10:31:50;;;;;;;15.65;7.00;;;;;;;24.44;37.11;95070.09;4929219;29;20202;-53
2023/03/19 10:34:41;;;;;;;19.25;7.35;;;;;;;24.24;37.01;95067.59;4925998;29;20206;-53
2023/03/19 10:37:16;;;;;;;13.43;6.30;;;;;;;24.04;37.12;95055.47;4872533;29;20205;-52
2023/03/19 10:39:45;;;;;;;22.85;6.50;;;;;;;23.89;36.63;95056.81;4873422;29;20200;-51
2023/03/19 10:42:40;;;;;;;11.55;5.53;;;;;;;23.68;36.48;95048.28;4875928;29;20292;-55
2023/03/19 10:45:19;;;;;;;15.45;6.47;;;;;;;23.50;36.42;95043.75;4875649;29;20293;-54
2023/03/19 10:47:46;;;;;;;12.68;6.40;;;;;;;23.35;36.24;95035.38;4896363;29;20297;-55
2023/03/19 10:50:17;;;;;;;10.55;6.13;;;;;;;23.21;36.19;95037.25;4932345;29;20191;-59
2023/03/19 10:52:51;;;;;;;13.05;6.05;;;;;;;23.08;36.04;95028.69;4932397;29;20219;-54
2023/03/19 10:55:23;;;;;;;15.15;6.47;;;;;;;22.93;35.87;95019.31;4932259;29;20223;-56
2023/03/19 10:57:55;;;;;;;11.18;5.43;;;;;;;22.83;35.60;95018.09;4932247;29;20728;-54
2023/03/19 11:00:24;;;;;;;12.48;6.07;;;;;;;22.68;35.51;95008.72;4932350;28;20199;-54
2023/03/19 11:02:53;;;;;;;9.98;6.00;;;;;;;22.57;35.43;95009.34;4932241;29;20290;-53
2023/03/19 11:05:24;;;;;;;7.22;5.43;;;;;;;22.45;35.40;95001.34;4932246;29;20231;-55
2023/03/19 11:07:57;;;;;;;11.38;6.28;;;;;;;22.36;35.44;95002.56;4932340;29;20230;-53
2023/03/19 11:10:28;;;;;;;9.07;5.30;;;;;;;22.28;35.38;95000.19;4932094;29;20195;-54
2023/03/19 11:12:57;;;;;;;9.10;5.47;;;;;;;22.17;35.17;94996.38;4933015;28;20199;-53
2023/03/19 11:15:29;;;;;;;8.00;5.30;;;;;;;22.10;35.03;94984.31;4992508;28;20228;-53
2023/03/19 11:17:58;;;;;;;11.05;5.68;;;;;;;22.00;35.09;94985.53;4992114;28;20189;-54
2023/03/19 11:20:29;;;;;;;11.60;5.90;;;;;;;21.93;35.16;94979.50;4992353;28;20239;-54
2023/03/19 11:23:01;;;;;;;7.72;5.25;;;;;;;21.88;34.89;94978.50;4991937;28;20197;-54
2023/03/19 11:25:30;;;;;;;12.20;6.45;;;;;;;21.84;34.67;94974.72;4992174;28;20209;-54
2023/03/19 11:28:02;;;;;;;11.48;6.28;;;;;;;21.79;35.09;94968.28;4991732;28;20646;-51
2023/03/19 11:30:38;;;;;;;9.82;5.25;;;;;;;21.74;35.12;94964.69;4992254;28;20205;-54
2023/03/19 11:33:36;;;;;;;8.65;5.57;;;;;;;21.69;34.94;94962.69;4991679;28;20197;-52
2023/03/19 11:36:11;;;;;;;7.32;5.68;;;;;;;21.63;34.73;94955.69;4991652;28;20235;-51
2023/03/19 11:38:52;;;;;;;7.80;4.97;;;;;;;21.58;34.79;94952.88;4989877;28;20550;-54